Time;durP1;ratioP1;P1;durP2;ratioP2;P2;SDS_P1;SDS_P2;PMS_P1;PMS_P2;Temp;Humidity;BMP_temperature;BMP_pressure;BME280_temperature;BME280_humidity;BME280_pressure;Samples;Min_cycle;Max_cycle;Signal;HPM_P1;HPM_P2
2024/01/26 00:00:05;;;;;;;23.35;18.45;;;10.90;99.90;;;;;;5078530;28;20077;-84
2024/01/26 00:02:30;;;;;;;25.27;18.33;;;10.90;99.90;;;;;;5079883;28;20035;-84
2024/01/26 00:04:56;;;;;;;21.83;18.23;;;10.90;99.90;;;;;;5118502;28;20059;-84
2024/01/26 00:07:22;;;;;;;21.08;17.38;;;10.90;99.90;;;;;;5101687;28;20031;-84
2024/01/26 00:09:48;;;;;;;22.30;17.75;;;10.90;99.90;;;;;;5118730;28;20085;-83
2024/01/26 00:12:13;;;;;;;22.05;18.15;;;10.90;99.90;;;;;;5062969;28;20047;-84
2024/01/26 00:14:39;;;;;;;22.00;18.20;;;10.90;99.90;;;;;;5061703;28;20042;-84
2024/01/26 00:17:05;;;;;;;23.35;18.30;;;10.90;99.90;;;;;;5077235;28;20529;-84
2024/01/26 00:19:30;;;;;;;20.80;17.90;;;10.90;99.90;;;;;;5060357;28;20060;-84
2024/01/26 00:21:57;;;;;;;22.25;18.27;;;10.90;99.90;;;;;;5077290;28;20028;-84
2024/01/26 00:24:22;;;;;;;20.55;17.95;;;10.90;99.90;;;;;;5076892;28;20047;-84
2024/01/26 00:26:48;;;;;;;21.60;18.13;;;10.90;99.90;;;;;;5094944;28;20368;-84
2024/01/26 00:29:13;;;;;;;21.10;18.00;;;10.90;99.90;;;;;;5043502;28;20127;-84
2024/01/26 00:31:39;;;;;;;21.52;16.92;;;10.90;99.90;;;;;;5076566;28;20070;-84
2024/01/26 00:34:05;;;;;;;23.52;18.67;;;10.90;99.90;;;;;;5076139;28;20027;-84
2024/01/26 00:36:30;;;;;;;23.70;18.00;;;10.90;99.90;;;;;;5060051;28;20537;-84
2024/01/26 00:38:56;;;;;;;23.80;19.40;;;10.90;99.90;;;;;;5043688;28;20487;-84
2024/01/26 00:41:22;;;;;;;23.13;18.70;;;10.90;99.90;;;;;;5094167;28;20050;-84
2024/01/26 00:43:47;;;;;;;23.30;18.42;;;10.90;99.90;;;;;;5059825;28;20025;-84
2024/01/26 00:46:13;;;;;;;22.17;18.65;;;11.00;99.90;;;;;;5076586;28;20107;-84
2024/01/26 00:48:41;;;;;;;23.20;18.95;;;11.00;99.90;;;;;;5076287;28;20028;-83
2024/01/26 00:51:07;;;;;;;21.05;18.38;;;11.00;99.90;;;;;;5075811;28;20087;-84
2024/01/26 00:53:33;;;;;;;22.23;18.15;;;11.00;99.90;;;;;;5042931;28;20062;-84
2024/01/26 00:55:58;;;;;;;20.48;18.27;;;11.00;99.90;;;;;;5060230;28;20527;-84
2024/01/26 00:58:24;;;;;;;21.60;18.83;;;11.00;99.90;;;;;;5094539;28;20032;-84
2024/01/26 01:00:52;;;;;;;20.20;17.60;;;11.00;99.90;;;;;;5076354;28;20486;-84
2024/01/26 01:03:19;;;;;;;24.55;18.67;;;11.00;99.90;;;;;;5043084;28;20063;-84
2024/01/26 01:05:45;;;;;;;22.00;18.38;;;11.00;99.90;;;;;;5075881;28;20036;-84
2024/01/26 01:08:10;;;;;;;22.50;18.33;;;11.00;99.90;;;;;;5059714;28;20353;-84
2024/01/26 01:10:36;;;;;;;22.15;17.85;;;11.00;99.90;;;;;;5059688;28;20356;-84
2024/01/26 01:13:04;;;;;;;20.48;17.08;;;11.00;99.90;;;;;;5059309;28;20048;-84
2024/01/26 01:15:31;;;;;;;19.38;16.70;;;11.00;99.90;;;;;;5060089;28;20032;-84
2024/01/26 01:17:57;;;;;;;19.38;17.15;;;11.00;99.90;;;;;;5059428;28;20085;-84
2024/01/26 01:20:22;;;;;;;21.77;17.52;;;11.00;99.90;;;;;;5076166;28;20036;-84
2024/01/26 01:22:48;;;;;;;19.17;17.00;;;11.00;99.90;;;;;;5059269;28;20032;-84
2024/01/26 01:25:14;;;;;;;19.67;16.65;;;11.00;99.90;;;;;;5075849;28;20036;-84
2024/01/26 01:27:40;;;;;;;20.27;17.05;;;11.00;99.90;;;;;;5059600;28;20468;-84
2024/01/26 01:30:07;;;;;;;19.55;16.35;;;11.00;99.90;;;;;;5076332;28;20115;-84
2024/01/26 01:32:34;;;;;;;21.83;17.50;;;11.00;99.90;;;;;;5076360;28;20036;-86
2024/01/26 01:35:00;;;;;;;18.67;16.60;;;11.00;99.90;;;;;;5062340;28;20040;-84
2024/01/26 01:37:26;;;;;;;18.08;16.17;;;11.00;99.90;;;;;;5099590;28;20004;-84
2024/01/26 01:39:52;;;;;;;18.35;15.88;;;11.00;99.90;;;;;;5117997;28;20028;-84
2024/01/26 01:42:17;;;;;;;17.88;15.98;;;11.00;99.90;;;;;;5084261;28;20012;-82
2024/01/26 01:44:44;;;;;;;21.75;16.08;;;11.00;99.90;;;;;;5100225;28;20016;-84
2024/01/26 01:47:10;;;;;;;17.13;14.70;;;11.00;99.90;;;;;;5097637;28;20023;-84
2024/01/26 01:49:40;;;;;;;17.40;15.20;;;11.00;99.90;;;;;;5080681;28;20023;-84
2024/01/26 01:52:27;;;;;;;16.00;14.20;;;11.00;99.90;;;;;;5080420;28;20024;-84
2024/01/26 01:55:00;;;;;;;17.17;14.57;;;11.00;99.90;;;;;;5079555;28;20050;-84
2024/01/26 01:57:27;;;;;;;18.90;14.73;;;11.00;99.90;;;;;;5079717;28;20048;-84
2024/01/26 01:59:53;;;;;;;17.38;14.32;;;11.10;99.90;;;;;;5079301;28;20028;-83
2024/01/26 02:02:23;;;;;;;16.50;14.48;;;11.00;99.90;;;;;;5062886;28;20028;-84
2024/01/26 02:04:52;;;;;;;15.50;13.82;;;11.00;99.90;;;;;;5063689;28;20028;-84
2024/01/26 02:07:17;;;;;;;17.25;15.40;;;11.10;99.90;;;;;;5079643;28;20046;-84
2024/01/26 02:09:43;;;;;;;15.63;14.02;;;11.10;99.90;;;;;;5079545;28;20463;-84
2024/01/26 02:12:09;;;;;;;17.75;15.10;;;11.10;99.90;;;;;;5079452;28;20357;-84
2024/01/26 02:14:34;;;;;;;17.92;14.85;;;11.10;99.90;;;;;;5062882;28;20055;-84
2024/01/26 02:17:02;;;;;;;15.85;14.15;;;11.10;99.90;;;;;;5079430;28;20055;-84
2024/01/26 02:19:32;;;;;;;16.63;14.95;;;11.10;99.90;;;;;;5079454;28;20035;-84
2024/01/26 02:21:58;;;;;;;15.43;13.50;;;11.10;99.90;;;;;;5079353;28;20044;-84
2024/01/26 02:24:24;;;;;;;15.05;13.00;;;11.10;99.90;;;;;;5062579;28;20032;-84
2024/01/26 02:26:49;;;;;;;14.93;13.38;;;11.10;99.90;;;;;;5062424;28;20031;-84
2024/01/26 02:29:15;;;;;;;15.05;13.48;;;11.10;99.90;;;;;;5061746;28;20115;-85
2024/01/26 02:31:41;;;;;;;14.00;12.57;;;11.10;99.90;;;;;;5078637;28;20024;-85
2024/01/26 02:34:07;;;;;;;15.30;13.70;;;11.10;99.90;;;;;;5062283;28;20033;-85
2024/01/26 02:36:34;;;;;;;15.27;13.10;;;11.10;99.90;;;;;;5061061;28;20048;-83
2024/01/26 02:39:00;;;;;;;14.10;12.60;;;11.10;99.90;;;;;;5078488;28;20469;-84
2024/01/26 02:41:26;;;;;;;13.45;12.05;;;11.10;99.90;;;;;;5062145;28;20062;-85
2024/01/26 02:43:51;;;;;;;13.73;11.98;;;11.10;99.90;;;;;;5045443;28;20032;-84
2024/01/26 02:46:18;;;;;;;13.13;11.82;;;11.10;99.90;;;;;;5061832;28;20060;-84
2024/01/26 02:48:44;;;;;;;12.27;10.70;;;11.10;99.90;;;;;;5062055;28;20031;-84
2024/01/26 02:51:10;;;;;;;13.73;10.55;;;11.10;99.90;;;;;;5078479;28;20024;-85
2024/01/26 02:53:39;;;;;;;11.75;10.55;;;11.10;99.90;;;;;;5078071;28;20032;-84
2024/01/26 02:56:06;;;;;;;11.68;10.45;;;11.10;99.90;;;;;;5061875;28;20100;-84
2024/01/26 02:58:32;;;;;;;11.32;10.23;;;11.10;99.90;;;;;;5046039;28;20115;-84
2024/01/26 03:00:57;;;;;;;11.60;10.35;;;11.10;99.90;;;;;;5061980;28;20028;-84
2024/01/26 03:03:23;;;;;;;11.40;10.07;;;11.10;99.90;;;;;;5078800;28;20028;-84
2024/01/26 03:05:49;;;;;;;10.23;9.10;;;11.10;99.90;;;;;;5048831;28;20114;-84
2024/01/26 03:08:15;;;;;;;10.45;8.57;;;11.10;99.90;;;;;;5098829;28;20016;-84
2024/01/26 03:10:41;;;;;;;9.68;8.15;;;11.10;99.90;;;;;;5103591;28;20034;-84
2024/01/26 03:13:06;;;;;;;9.13;7.53;;;11.00;99.90;;;;;;5083190;28;20055;-84
2024/01/26 03:15:32;;;;;;;8.60;7.53;;;11.10;99.90;;;;;;5083339;28;20023;-84
2024/01/26 03:17:57;;;;;;;8.95;8.05;;;11.10;99.90;;;;;;5059492;28;20033;-84
2024/01/26 03:20:23;;;;;;;7.93;6.88;;;11.10;99.90;;;;;;5077926;28;20029;-84
2024/01/26 03:22:49;;;;;;;8.43;7.25;;;11.10;99.90;;;;;;5058274;28;20029;-84
2024/01/26 03:25:15;;;;;;;7.70;6.88;;;11.10;99.90;;;;;;5058226;28;20036;-84
2024/01/26 03:27:40;;;;;;;8.00;7.03;;;11.10;99.90;;;;;;5041374;28;20028;-84
2024/01/26 03:30:08;;;;;;;8.90;7.13;;;11.10;99.90;;;;;;5057947;28;20032;-84
2024/01/26 03:32:34;;;;;;;7.13;6.43;;;11.10;99.90;;;;;;5074752;28;20025;-84
2024/01/26 03:35:00;;;;;;;6.68;5.95;;;11.00;99.90;;;;;;5074246;28;20040;-84
2024/01/26 03:37:25;;;;;;;6.38;5.72;;;11.10;99.90;;;;;;5075579;28;20021;-84
2024/01/26 03:39:51;;;;;;;6.57;5.90;;;11.10;99.90;;;;;;5057527;28;20028;-84
2024/01/26 03:42:16;;;;;;;7.53;6.15;;;11.10;99.90;;;;;;5057798;28;20024;-84
2024/01/26 03:44:42;;;;;;;7.07;5.95;;;11.10;99.90;;;;;;5074406;28;20036;-84
2024/01/26 03:47:09;;;;;;;7.25;6.32;;;11.10;99.90;;;;;;5073743;28;20028;-85
2024/01/26 03:49:35;;;;;;;9.15;6.63;;;11.00;99.90;;;;;;5057565;28;20028;-84
2024/01/26 03:52:01;;;;;;;6.60;5.80;;;11.10;99.90;;;;;;5057551;28;20037;-84
2024/01/26 03:54:27;;;;;;;7.22;5.63;;;11.00;99.90;;;;;;5057703;28;20032;-84
2024/01/26 03:56:52;;;;;;;6.10;5.38;;;11.00;99.90;;;;;;5074837;28;20380;-84
2024/01/26 03:59:19;;;;;;;5.60;4.97;;;11.10;99.90;;;;;;5040881;28;20039;-84
2024/01/26 04:01:45;;;;;;;6.15;4.78;;;11.10;99.90;;;;;;5057631;28;20029;-85
2024/01/26 04:04:11;;;;;;;5.40;4.80;;;11.10;99.90;;;;;;5040885;28;20488;-84
2024/01/26 04:06:40;;;;;;;4.57;3.88;;;11.10;99.90;;;;;;5073993;28;20116;-84
2024/01/26 04:09:09;;;;;;;5.72;4.60;;;11.10;99.90;;;;;;5056434;28;20361;-84
2024/01/26 04:11:37;;;;;;;5.30;4.43;;;11.10;99.90;;;;;;5040818;28;20032;-84
2024/01/26 04:14:04;;;;;;;4.78;4.20;;;11.10;99.90;;;;;;5073330;28;20058;-84
2024/01/26 04:16:30;;;;;;;5.53;4.18;;;11.10;99.90;;;;;;5057345;28;20028;-84
2024/01/26 04:18:56;;;;;;;5.95;3.97;;;11.10;99.90;;;;;;5073307;28;20086;-84
2024/01/26 04:21:21;;;;;;;5.90;4.00;;;11.10;99.90;;;;;;5073595;28;20028;-84
2024/01/26 04:23:47;;;;;;;5.32;4.32;;;11.10;99.90;;;;;;5057232;28;20036;-84
2024/01/26 04:26:14;;;;;;;4.63;4.03;;;11.10;99.90;;;;;;5057029;28;20043;-84
2024/01/26 04:28:40;;;;;;;4.28;3.88;;;11.10;99.90;;;;;;5057274;28;20056;-84
2024/01/26 04:31:06;;;;;;;4.57;3.90;;;11.10;99.90;;;;;;5073798;28;20109;-84
2024/01/26 04:33:32;;;;;;;5.28;4.25;;;11.10;99.90;;;;;;5057178;28;20032;-84
2024/01/26 04:35:57;;;;;;;6.65;4.63;;;11.10;99.90;;;;;;5057132;28;20021;-84
2024/01/26 04:38:23;;;;;;;6.13;4.20;;;11.10;99.90;;;;;;5074858;28;20033;-84
2024/01/26 04:40:49;;;;;;;5.55;4.47;;;11.10;99.90;;;;;;5090019;28;20046;-84
2024/01/26 04:43:15;;;;;;;5.53;4.00;;;11.10;99.90;;;;;;5097781;28;20030;-84
2024/01/26 04:45:40;;;;;;;4.40;3.78;;;11.10;99.90;;;;;;5081154;28;20052;-84
2024/01/26 04:48:07;;;;;;;5.00;4.10;;;11.20;99.90;;;;;;5097417;28;20078;-84
2024/01/26 04:50:33;;;;;;;4.53;3.50;;;11.20;99.90;;;;;;5082844;28;20025;-84
2024/01/26 04:52:59;;;;;;;5.03;4.53;;;11.20;99.90;;;;;;5073088;28;20374;-84
2024/01/26 04:55:30;;;;;;;5.18;4.03;;;11.20;99.90;;;;;;5056967;28;20032;-84
2024/01/26 04:57:56;;;;;;;6.15;3.83;;;11.20;99.90;;;;;;5041544;28;20460;-84
2024/01/26 05:00:22;;;;;;;4.70;3.92;;;11.20;99.90;;;;;;5073834;28;20028;-84
2024/01/26 05:02:49;;;;;;;4.68;4.00;;;11.20;99.90;;;;;;5073336;28;20349;-84
2024/01/26 05:05:14;;;;;;;6.50;4.53;;;11.20;99.90;;;;;;5072502;28;20062;-84
2024/01/26 05:07:40;;;;;;;5.80;4.32;;;11.20;99.90;;;;;;5056278;28;20056;-83
2024/01/26 05:10:07;;;;;;;5.15;4.28;;;11.20;99.90;;;;;;5072485;28;20024;-84
2024/01/26 05:12:33;;;;;;;5.43;4.47;;;11.20;99.90;;;;;;5072437;28;20056;-84
2024/01/26 05:14:59;;;;;;;4.70;4.22;;;11.20;99.90;;;;;;5072643;28;20476;-84
2024/01/26 05:17:25;;;;;;;5.60;4.43;;;11.20;99.90;;;;;;5055771;28;20040;-84
2024/01/26 05:19:51;;;;;;;7.25;4.90;;;11.20;99.90;;;;;;5073681;28;20452;-84
2024/01/26 05:22:18;;;;;;;7.45;5.38;;;11.20;99.90;;;;;;5072241;28;20472;-84
2024/01/26 05:24:44;;;;;;;5.85;5.25;;;11.20;99.90;;;;;;5056155;28;20060;-84
2024/01/26 05:27:10;;;;;;;6.43;4.70;;;11.20;99.90;;;;;;5072593;28;20253;-84
2024/01/26 05:29:36;;;;;;;5.93;5.20;;;11.20;99.90;;;;;;5072621;28;20033;-85
2024/01/26 05:32:05;;;;;;;5.88;5.28;;;11.20;99.90;;;;;;5055673;28;20111;-84
2024/01/26 05:34:31;;;;;;;7.03;5.25;;;11.20;99.90;;;;;;5073651;28;20060;-84
2024/01/26 05:36:57;;;;;;;7.53;5.72;;;11.20;99.90;;;;;;5072336;28;20113;-84
2024/01/26 05:39:22;;;;;;;7.32;5.43;;;11.20;99.90;;;;;;5072339;28;20017;-84
2024/01/26 05:41:48;;;;;;;6.25;4.82;;;11.20;99.90;;;;;;5072161;28;20081;-85
2024/01/26 05:44:14;;;;;;;7.80;6.15;;;11.20;99.90;;;;;;5055589;28;20128;-83
2024/01/26 05:46:39;;;;;;;5.72;4.85;;;11.30;99.90;;;;;;5054852;28;20028;-84
2024/01/26 05:49:05;;;;;;;7.25;6.10;;;11.30;99.90;;;;;;5071890;28;20070;-84
2024/01/26 05:51:31;;;;;;;7.97;5.75;;;11.30;99.90;;;;;;5072307;28;20025;-85
2024/01/26 05:53:56;;;;;;;7.03;5.90;;;11.30;99.90;;;;;;5055025;28;20488;-84
2024/01/26 05:56:22;;;;;;;7.85;6.40;;;11.30;99.90;;;;;;5055413;28;20427;-84
2024/01/26 05:58:48;;;;;;;7.78;6.22;;;11.30;99.90;;;;;;5038915;28;20021;-84
2024/01/26 06:01:14;;;;;;;6.93;6.22;;;11.30;99.90;;;;;;5054820;28;20082;-83
2024/01/26 06:03:39;;;;;;;8.82;6.53;;;11.30;99.90;;;;;;5071964;28;20035;-83
2024/01/26 06:06:05;;;;;;;8.15;7.03;;;11.30;99.90;;;;;;5055570;28;20037;-83
2024/01/26 06:08:31;;;;;;;9.50;7.57;;;11.30;99.90;;;;;;5072311;28;20056;-87
2024/01/26 06:10:57;;;;;;;8.82;7.45;;;11.30;99.90;;;;;;5072607;28;20455;-84
2024/01/26 06:13:27;;;;;;;7.45;6.35;;;11.30;99.90;;;;;;5067031;28;20439;-82
2024/01/26 06:15:53;;;;;;;7.32;6.53;;;11.30;99.90;;;;;;5096165;28;20029;-83
2024/01/26 06:18:21;;;;;;;8.30;6.60;;;11.30;99.90;;;;;;5095919;28;20077;-83
2024/01/26 06:20:47;;;;;;;8.07;6.70;;;11.20;99.90;;;;;;5078865;28;20032;-83
2024/01/26 06:23:13;;;;;;;9.90;7.15;;;11.20;99.90;;;;;;5079793;28;20037;-83
2024/01/26 06:25:41;;;;;;;7.28;6.57;;;11.20;99.90;;;;;;5056717;28;20108;-83
2024/01/26 06:28:07;;;;;;;8.98;7.13;;;11.20;99.90;;;;;;5072472;28;20059;-82
2024/01/26 06:30:32;;;;;;;7.50;6.70;;;11.20;99.90;;;;;;5071807;28;20028;-83
2024/01/26 06:33:01;;;;;;;7.72;6.65;;;11.20;99.90;;;;;;5058998;28;20036;-83
2024/01/26 06:35:29;;;;;;;8.05;7.07;;;11.20;99.90;;;;;;5059505;28;20029;-83
2024/01/26 06:37:55;;;;;;;7.10;6.40;;;11.20;99.90;;;;;;5075398;28;20051;-82
2024/01/26 06:40:20;;;;;;;9.07;6.63;;;11.10;99.90;;;;;;5058895;28;20460;-83
2024/01/26 06:42:46;;;;;;;9.25;6.43;;;11.10;99.90;;;;;;5058979;28;20388;-82
2024/01/26 06:45:13;;;;;;;7.93;6.60;;;11.10;99.90;;;;;;5042074;28;20028;-83
2024/01/26 06:47:39;;;;;;;7.85;5.97;;;11.10;99.90;;;;;;5075115;28;20091;-82
2024/01/26 06:50:06;;;;;;;7.20;6.13;;;11.10;99.90;;;;;;5075320;28;20451;-83
2024/01/26 06:52:32;;;;;;;7.63;6.82;;;11.10;99.90;;;;;;5075170;28;20048;-83
2024/01/26 06:54:58;;;;;;;7.50;6.07;;;11.10;99.90;;;;;;5075005;28;20082;-83
2024/01/26 06:57:24;;;;;;;6.90;5.38;;;11.10;99.90;;;;;;5074858;28;20024;-83
2024/01/26 06:59:50;;;;;;;5.80;5.10;;;11.10;99.90;;;;;;5075058;28;20024;-83
2024/01/26 07:02:19;;;;;;;6.38;5.50;;;11.10;99.90;;;;;;5074993;28;20032;-83
2024/01/26 07:04:48;;;;;;;10.30;5.50;;;11.10;99.90;;;;;;5075179;28;20036;-83
2024/01/26 07:07:14;;;;;;;6.10;5.50;;;11.10;99.90;;;;;;5075209;28;20028;-84
2024/01/26 07:09:42;;;;;;;5.15;4.65;;;11.10;99.90;;;;;;5058402;28;20040;-84
2024/01/26 07:12:10;;;;;;;9.07;6.07;;;11.10;99.90;;;;;;5075645;28;20052;-83
2024/01/26 07:14:39;;;;;;;5.82;4.80;;;11.10;99.90;;;;;;5096141;28;20036;-84
2024/01/26 07:17:04;;;;;;;6.20;5.32;;;11.10;99.90;;;;;;5061418;28;20384;-83
2024/01/26 07:19:30;;;;;;;6.50;4.70;;;11.10;99.90;;;;;;5096355;28;20074;-83
2024/01/26 07:21:58;;;;;;;5.82;4.93;;;11.10;99.90;;;;;;5061893;28;20028;-83
2024/01/26 07:24:31;;;;;;;6.95;4.35;;;11.10;99.90;;;;;;5078028;28;20115;-83
2024/01/26 07:26:57;;;;;;;4.80;4.25;;;11.10;99.90;;;;;;5078176;28;20031;-83
2024/01/26 07:29:22;;;;;;;5.57;4.63;;;11.10;99.90;;;;;;5078000;28;20025;-83
2024/01/26 07:31:49;;;;;;;6.15;4.90;;;11.10;99.90;;;;;;5077904;28;20468;-83
2024/01/26 07:34:15;;;;;;;5.45;4.78;;;11.10;99.90;;;;;;5061369;28;20043;-82
2024/01/26 07:36:43;;;;;;;6.20;5.57;;;11.10;99.90;;;;;;5061018;28;20020;-83
2024/01/26 07:39:09;;;;;;;5.53;4.85;;;11.10;99.90;;;;;;5095975;28;20027;-82
2024/01/26 07:41:36;;;;;;;4.97;4.45;;;11.10;99.90;;;;;;5078656;28;20031;-83
2024/01/26 07:44:02;;;;;;;5.82;5.20;;;11.10;99.90;;;;;;5062988;28;20028;-83
2024/01/26 07:46:27;;;;;;;6.90;5.13;;;11.10;99.90;;;;;;5082393;28;20008;-83
2024/01/26 07:48:53;;;;;;;5.43;4.93;;;11.10;99.90;;;;;;5102276;28;20024;-83
2024/01/26 07:51:19;;;;;;;8.10;5.32;;;11.10;99.90;;;;;;5101950;28;20004;-83
2024/01/26 07:53:44;;;;;;;6.43;5.82;;;11.20;99.90;;;;;;5066990;28;20046;-81
2024/01/26 07:56:10;;;;;;;5.82;5.20;;;11.20;99.90;;;;;;5063763;28;20024;-83
2024/01/26 07:58:36;;;;;;;6.30;5.20;;;11.20;99.90;;;;;;5061583;28;20467;-82
2024/01/26 08:01:04;;;;;;;5.72;5.18;;;11.20;99.90;;;;;;5060710;28;20045;-82
2024/01/26 08:03:31;;;;;;;6.00;5.30;;;11.20;99.90;;;;;;5061008;28;20036;-82
2024/01/26 08:05:56;;;;;;;6.32;5.32;;;11.20;99.90;;;;;;5060896;28;20024;-82
2024/01/26 08:08:22;;;;;;;6.20;5.60;;;11.20;99.90;;;;;;5076914;28;20040;-83
2024/01/26 08:10:48;;;;;;;6.78;6.00;;;11.20;99.90;;;;;;5060314;28;20028;-83
2024/01/26 08:13:15;;;;;;;6.55;5.85;;;11.30;99.90;;;;;;5060092;28;20093;-83
2024/01/26 08:15:40;;;;;;;5.93;5.32;;;11.30;99.90;;;;;;5076702;28;20040;-83
2024/01/26 08:18:06;;;;;;;6.70;5.50;;;11.30;99.90;;;;;;5060490;28;20383;-83
2024/01/26 08:20:32;;;;;;;7.07;6.38;;;11.30;99.90;;;;;;5043591;28;20024;-82
2024/01/26 08:22:57;;;;;;;6.30;5.57;;;11.30;99.90;;;;;;5059811;28;20464;-83
2024/01/26 08:25:24;;;;;;;6.13;5.53;;;11.30;99.90;;;;;;5059581;28;20027;-83
2024/01/26 08:27:51;;;;;;;7.13;6.25;;;11.30;99.90;;;;;;5059984;28;20444;-83
2024/01/26 08:30:16;;;;;;;8.55;6.93;;;11.40;99.90;;;;;;5076261;28;20078;-83
2024/01/26 08:32:45;;;;;;;7.38;6.68;;;11.40;99.90;;;;;;5060055;28;20031;-83
2024/01/26 08:35:11;;;;;;;7.82;6.93;;;11.40;99.90;;;;;;5060100;28;20058;-83
2024/01/26 08:37:43;;;;;;;7.63;6.88;;;11.40;99.90;;;;;;5043149;28;20024;-83
2024/01/26 08:40:09;;;;;;;8.80;7.00;;;11.40;99.90;;;;;;5077458;28;20365;-83
2024/01/26 08:42:35;;;;;;;9.80;7.75;;;11.40;99.90;;;;;;5076292;28;20032;-83
2024/01/26 08:45:01;;;;;;;8.32;6.72;;;11.40;99.90;;;;;;5076249;28;20028;-83
2024/01/26 08:47:27;;;;;;;9.38;7.20;;;11.40;99.90;;;;;;5059586;28;20032;-82
2024/01/26 08:49:53;;;;;;;7.68;6.95;;;11.40;99.90;;;;;;5059555;28;20388;-82
2024/01/26 08:52:19;;;;;;;9.52;7.97;;;11.50;99.90;;;;;;5042876;28;20108;-82
2024/01/26 08:54:44;;;;;;;8.13;7.32;;;11.50;99.90;;;;;;5059192;28;20206;-83
2024/01/26 08:57:11;;;;;;;7.97;7.18;;;11.60;99.90;;;;;;5059599;28;20120;-83
2024/01/26 08:59:38;;;;;;;8.70;6.90;;;11.60;99.90;;;;;;5059515;28;20052;-83
2024/01/26 09:02:04;;;;;;;9.05;7.22;;;11.60;99.90;;;;;;5059840;28;20024;-82
2024/01/26 09:04:30;;;;;;;8.55;6.88;;;11.60;99.90;;;;;;5059467;28;20032;-82
2024/01/26 09:06:55;;;;;;;8.68;7.50;;;11.60;99.90;;;;;;5076117;28;20110;-82
2024/01/26 09:09:22;;;;;;;8.73;7.63;;;11.60;99.90;;;;;;5059550;28;20030;-82
2024/01/26 09:11:47;;;;;;;8.60;6.65;;;11.60;99.90;;;;;;5059682;28;20028;-82
2024/01/26 09:14:14;;;;;;;8.32;6.53;;;11.60;99.90;;;;;;5061117;28;20131;-82
2024/01/26 09:16:39;;;;;;;7.88;5.90;;;11.60;99.90;;;;;;5078094;28;20035;-83
2024/01/26 09:19:08;;;;;;;8.27;5.88;;;11.60;99.90;;;;;;5079232;28;20032;-83
2024/01/26 09:21:33;;;;;;;6.10;4.47;;;11.60;99.90;;;;;;5100617;28;20008;-83
2024/01/26 09:23:59;;;;;;;9.68;4.97;;;11.60;99.90;;;;;;5083385;28;20083;-83
2024/01/26 09:26:25;;;;;;;8.60;4.47;;;11.60;99.90;;;;;;5083094;28;20114;-82
2024/01/26 09:28:50;;;;;;;4.57;3.65;;;11.50;99.90;;;;;;5044777;28;20121;-83
2024/01/26 09:31:17;;;;;;;6.10;3.03;;;11.60;99.90;;;;;;5059841;28;20028;-83
2024/01/26 09:33:43;;;;;;;7.90;3.47;;;11.50;99.90;;;;;;5059227;28;20450;-83
2024/01/26 09:36:10;;;;;;;6.70;2.88;;;11.50;99.90;;;;;;5059069;28;20032;-83
2024/01/26 09:38:35;;;;;;;6.07;2.92;;;11.50;99.90;;;;;;5042579;28;20100;-85
2024/01/26 09:41:01;;;;;;;6.20;2.13;;;11.50;99.90;;;;;;5075510;28;20407;-83
2024/01/26 09:43:27;;;;;;;3.80;1.50;;;11.40;99.90;;;;;;5093659;28;20020;-83
2024/01/26 09:45:53;;;;;;;5.15;1.50;;;11.30;99.90;;;;;;5075579;28;20073;-83
2024/01/26 09:48:20;;;;;;;6.60;1.50;;;11.30;99.90;;;;;;5058593;28;20051;-83
2024/01/26 09:50:56;;;;;;;7.32;1.75;;;11.20;99.90;;;;;;5058437;28;20430;-83
2024/01/26 09:53:23;;;;;;;4.95;1.45;;;11.10;99.90;;;;;;5093758;28;20036;-84
2024/01/26 09:55:51;;;;;;;5.40;1.75;;;11.00;99.90;;;;;;5075504;28;20028;-83
2024/01/26 09:58:16;;;;;;;7.57;1.70;;;11.00;99.90;;;;;;5058991;28;20043;-83
2024/01/26 10:00:44;;;;;;;6.68;1.55;;;11.00;99.90;;;;;;5075668;28;20448;-83
2024/01/26 10:03:10;;;;;;;2.88;0.88;;;10.90;99.90;;;;;;5058907;28;20372;-83
2024/01/26 10:05:37;;;;;;;6.40;1.17;;;10.80;99.90;;;;;;5075687;28;20020;-83
2024/01/26 10:08:13;;;;;;;4.88;1.00;;;10.60;99.90;;;;;;5079233;28;20024;-83
2024/01/26 10:10:38;;;;;;;5.85;1.23;;;10.40;99.90;;;;;;5079704;28;20336;-83
2024/01/26 10:13:06;;;;;;;4.25;1.00;;;10.20;99.90;;;;;;5062280;28;20048;-84
2024/01/26 10:15:32;;;;;;;4.97;1.60;;;10.10;99.90;;;;;;5079588;28;20051;-83
2024/01/26 10:17:58;;;;;;;6.32;1.05;;;10.00;99.90;;;;;;5045934;28;20024;-83
2024/01/26 10:20:24;;;;;;;5.45;1.70;;;9.90;99.90;;;;;;5045960;28;20066;-83
2024/01/26 10:22:50;;;;;;;2.92;0.85;;;9.90;99.90;;;;;;5078916;28;20357;-83
2024/01/26 10:25:16;;;;;;;6.50;1.05;;;9.80;99.90;;;;;;5062496;28;20024;-83
2024/01/26 10:27:42;;;;;;;5.53;1.52;;;9.80;99.90;;;;;;5079105;28;20012;-83
2024/01/26 10:30:10;;;;;;;3.10;1.20;;;9.80;99.90;;;;;;5078746;28;20020;-83
2024/01/26 10:32:37;;;;;;;2.75;0.95;;;9.80;99.90;;;;;;5078932;28;20020;-83
2024/01/26 10:35:04;;;;;;;5.82;1.20;;;9.80;99.90;;;;;;5078938;28;20431;-83
2024/01/26 10:37:35;;;;;;;7.38;1.63;;;9.80;99.90;;;;;;5079152;28;20092;-83
2024/01/26 10:40:02;;;;;;;6.47;1.40;;;9.80;99.90;;;;;;5096994;28;20073;-83
2024/01/26 10:42:32;;;;;;;8.50;1.80;;;9.80;99.90;;;;;;5079188;28;20028;-83
2024/01/26 10:45:00;;;;;;;5.27;1.20;;;9.80;99.90;;;;;;5083048;28;20024;-83
2024/01/26 10:47:27;;;;;;;4.80;1.75;;;9.80;99.90;;;;;;5114730;28;20016;-83
2024/01/26 10:49:56;;;;;;;6.65;1.42;;;9.80;99.90;;;;;;5084903;28;20028;-83
2024/01/26 10:52:23;;;;;;;5.65;2.17;;;9.80;99.90;;;;;;5103674;28;20020;-82
2024/01/26 10:54:50;;;;;;;10.20;2.00;;;9.90;99.90;;;;;;5102707;28;20031;-83
2024/01/26 10:57:19;;;;;;;5.88;1.65;;;9.90;99.90;;;;;;5114963;28;20020;-83
2024/01/26 10:59:45;;;;;;;4.50;1.40;;;9.90;99.90;;;;;;5097392;28;20051;-83
2024/01/26 11:02:24;;;;;;;8.30;1.95;;;10.00;99.90;;;;;;5079161;28;20039;-83
2024/01/26 11:04:50;;;;;;;10.60;2.08;;;10.00;99.90;;;;;;5096568;28;20073;-83
2024/01/26 11:07:20;;;;;;;6.22;2.10;;;10.00;99.90;;;;;;5078402;28;20395;-83
2024/01/26 11:09:46;;;;;;;6.68;1.48;;;10.00;99.90;;;;;;5078071;28;20537;-83
2024/01/26 11:12:22;;;;;;;8.02;1.92;;;10.00;99.90;;;;;;5061210;28;20035;-84
2024/01/26 11:15:04;;;;;;;6.40;1.50;;;10.00;99.90;;;;;;5077783;28;20028;-82
2024/01/26 11:17:39;;;;;;;12.25;2.38;;;9.90;99.90;;;;;;5061457;28;20097;-83
2024/01/26 11:20:12;;;;;;;12.07;2.22;;;9.90;99.90;;;;;;5096267;28;20028;-83
2024/01/26 11:22:38;;;;;;;10.40;2.00;;;9.90;99.90;;;;;;5078199;28;20452;-83
2024/01/26 11:25:04;;;;;;;9.00;1.80;;;9.80;99.90;;;;;;5044732;28;20039;-83
2024/01/26 11:27:30;;;;;;;8.63;2.08;;;9.80;99.90;;;;;;5045087;28;20488;-84
2024/01/26 11:29:56;;;;;;;7.63;1.55;;;9.80;99.90;;;;;;5061081;28;20028;-84
2024/01/26 11:35:17;;;;;;;8.20;1.83;;;9.80;99.90;;;;;;5060365;28;20115;-83
2024/01/26 11:37:43;;;;;;;7.15;1.75;;;9.80;99.90;;;;;;5077170;28;20031;-82
2024/01/26 11:40:10;;;;;;;7.07;1.75;;;9.80;99.90;;;;;;5060084;28;20028;-83
2024/01/26 11:42:42;;;;;;;7.97;2.17;;;9.70;99.90;;;;;;5060644;28;20090;-83
2024/01/26 11:45:13;;;;;;;11.45;2.00;;;9.80;99.90;;;;;;5076952;28;20059;-83
2024/01/26 11:47:39;;;;;;;14.23;2.50;;;9.80;99.90;;;;;;5076955;28;20032;-83
2024/01/26 11:50:11;;;;;;;11.05;2.63;;;9.80;99.90;;;;;;5077427;28;20665;-83
2024/01/26 11:52:38;;;;;;;10.00;2.40;;;9.80;99.90;;;;;;5076618;28;20392;-83
2024/01/26 11:55:05;;;;;;;9.88;2.15;;;9.80;99.90;;;;;;5060106;28;20044;-83
2024/01/26 11:57:35;;;;;;;11.07;2.03;;;9.70;99.90;;;;;;5095091;28;20076;-84
2024/01/26 12:00:10;;;;;;;11.95;2.70;;;9.70;99.90;;;;;;5076874;28;20028;-83
2024/01/26 12:02:36;;;;;;;10.25;2.38;;;9.80;99.90;;;;;;5076242;28;20028;-83
2024/01/26 12:05:02;;;;;;;7.22;2.17;;;9.80;99.90;;;;;;5060547;28;20032;-83
2024/01/26 12:07:28;;;;;;;9.13;2.42;;;9.80;99.90;;;;;;5094909;28;20023;-83
2024/01/26 12:09:53;;;;;;;10.48;3.10;;;9.80;99.90;;;;;;5060685;28;20111;-83
2024/01/26 12:12:20;;;;;;;9.13;2.60;;;9.80;99.90;;;;;;5060800;28;20101;-83
2024/01/26 12:14:45;;;;;;;7.28;2.35;;;9.90;99.90;;;;;;5078684;28;20045;-82
2024/01/26 12:17:11;;;;;;;7.05;2.17;;;9.90;99.90;;;;;;5080320;28;20096;-83
2024/01/26 12:19:40;;;;;;;10.20;2.00;;;9.90;99.90;;;;;;5083467;28;20016;-82
2024/01/26 12:22:09;;;;;;;11.93;2.80;;;9.80;99.90;;;;;;5100582;28;20028;-82
2024/01/26 12:24:35;;;;;;;8.00;1.95;;;9.80;99.90;;;;;;5084025;28;20024;-82
2024/01/26 12:27:02;;;;;;;8.65;2.45;;;9.70;99.90;;;;;;5092913;28;20357;-83
2024/01/26 12:29:31;;;;;;;11.07;2.67;;;9.60;99.90;;;;;;5060948;28;20024;-83
2024/01/26 12:32:08;;;;;;;8.98;2.10;;;9.60;99.90;;;;;;5061150;28;20028;-82
2024/01/26 12:34:36;;;;;;;10.50;2.47;;;9.50;99.90;;;;;;5094764;28;20078;-82
2024/01/26 12:37:03;;;;;;;11.90;2.97;;;9.50;99.90;;;;;;5094764;28;20085;-82
2024/01/26 12:39:29;;;;;;;9.07;2.30;;;9.50;99.90;;;;;;5060344;28;20099;-82
2024/01/26 12:41:55;;;;;;;12.52;3.25;;;9.50;99.90;;;;;;5043394;28;20484;-82